sensor_id;sensor_type;location;lat;lon;timestamp;noise_LAeq;noise_LA_min;noise_LA_max;noise_LA01;noise_LA95
37163;Laerm;23057;48.554;14.454;2023-06-22T00:00:11;49.87;48.78;53.40;;
37163;Laerm;23057;48.554;14.454;2023-06-22T00:02:42;49.83;48.63;56.42;;
37163;Laerm;23057;48.554;14.454;2023-06-22T00:05:13;49.84;48.57;53.58;;
37163;Laerm;23057;48.554;14.454;2023-06-22T00:07:43;49.80;48.67;53.74;;
37163;Laerm;23057;48.554;14.454;2023-06-22T00:10:14;49.66;48.55;63.21;;
37163;Laerm;23057;48.554;14.454;2023-06-22T00:12:45;49.64;48.61;64.21;;
37163;Laerm;23057;48.554;14.454;2023-06-22T00:15:15;49.63;48.57;54.58;;
37163;Laerm;23057;48.554;14.454;2023-06-22T00:17:46;49.68;48.55;51.70;;
37163;Laerm;23057;48.554;14.454;2023-06-22T00:20:17;49.80;48.57;64.15;;
37163;Laerm;23057;48.554;14.454;2023-06-22T00:22:48;49.78;48.63;52.15;;
37163;Laerm;23057;48.554;14.454;2023-06-22T00:25:19;49.92;48.81;55.72;;
37163;Laerm;23057;48.554;14.454;2023-06-22T00:27:51;49.82;48.76;51.84;;
37163;Laerm;23057;48.554;14.454;2023-06-22T00:30:21;49.82;48.69;52.30;;
37163;Laerm;23057;48.554;14.454;2023-06-22T00:32:52;49.86;48.42;53.30;;
37163;Laerm;23057;48.554;14.454;2023-06-22T00:35:23;49.87;48.76;52.22;;
37163;Laerm;23057;48.554;14.454;2023-06-22T00:37:54;49.89;48.66;52.75;;
37163;Laerm;23057;48.554;14.454;2023-06-22T00:40:32;49.81;48.76;51.82;;
37163;Laerm;23057;48.554;14.454;2023-06-22T00:43:05;49.83;48.48;63.14;;
37163;Laerm;23057;48.554;14.454;2023-06-22T00:45:36;49.68;48.64;61.85;;
37163;Laerm;23057;48.554;14.454;2023-06-22T00:48:08;49.65;48.46;54.74;;
37163;Laerm;23057;48.554;14.454;2023-06-22T00:50:39;49.63;48.55;52.21;;
37163;Laerm;23057;48.554;14.454;2023-06-22T00:53:10;49.63;48.69;51.91;;
37163;Laerm;23057;48.554;14.454;2023-06-22T00:55:43;49.70;48.48;63.75;;
37163;Laerm;23057;48.554;14.454;2023-06-22T00:58:15;49.70;48.66;51.55;;
37163;Laerm;23057;48.554;14.454;2023-06-22T01:00:46;49.83;48.66;52.08;;
37163;Laerm;23057;48.554;14.454;2023-06-22T01:03:17;49.82;48.73;63.78;;
37163;Laerm;23057;48.554;14.454;2023-06-22T01:05:49;49.69;48.29;52.23;;
37163;Laerm;23057;48.554;14.454;2023-06-22T01:11:30;49.86;48.55;58.62;;
37163;Laerm;23057;48.554;14.454;2023-06-22T01:16:55;50.04;48.67;58.41;;
37163;Laerm;23057;48.554;14.454;2023-06-22T01:19:49;50.20;48.91;58.37;;
37163;Laerm;23057;48.554;14.454;2023-06-22T01:22:31;50.22;48.91;63.49;;
37163;Laerm;23057;48.554;14.454;2023-06-22T01:25:20;50.20;49.04;62.72;;
37163;Laerm;23057;48.554;14.454;2023-06-22T01:30:46;50.12;48.88;57.24;;
37163;Laerm;23057;48.554;14.454;2023-06-22T01:33:17;50.01;48.84;57.73;;
37163;Laerm;23057;48.554;14.454;2023-06-22T01:35:48;49.94;48.81;58.19;;
37163;Laerm;23057;48.554;14.454;2023-06-22T01:38:20;49.80;48.54;56.31;;
37163;Laerm;23057;48.554;14.454;2023-06-22T01:40:51;50.09;48.95;57.61;;
37163;Laerm;23057;48.554;14.454;2023-06-22T01:43:25;50.05;48.96;56.81;;
37163;Laerm;23057;48.554;14.454;2023-06-22T01:46:01;49.95;48.77;58.13;;
37163;Laerm;23057;48.554;14.454;2023-06-22T01:48:32;49.91;48.83;57.83;;
37163;Laerm;23057;48.554;14.454;2023-06-22T01:51:03;49.90;48.63;57.66;;
37163;Laerm;23057;48.554;14.454;2023-06-22T01:53:34;49.68;48.10;57.92;;
37163;Laerm;23057;48.554;14.454;2023-06-22T01:56:05;49.67;48.49;57.73;;
37163;Laerm;23057;48.554;14.454;2023-06-22T01:58:44;49.68;48.45;57.72;;
37163;Laerm;23057;48.554;14.454;2023-06-22T02:01:24;49.65;48.55;56.60;;
37163;Laerm;23057;48.554;14.454;2023-06-22T02:04:10;49.67;48.54;58.02;;
37163;Laerm;23057;48.554;14.454;2023-06-22T02:06:45;49.68;48.66;54.84;;
37163;Laerm;23057;48.554;14.454;2023-06-22T02:09:20;49.64;48.69;52.90;;
37163;Laerm;23057;48.554;14.454;2023-06-22T02:11:56;49.68;48.55;58.33;;
37163;Laerm;23057;48.554;14.454;2023-06-22T02:14:28;49.66;48.61;58.10;;
37163;Laerm;23057;48.554;14.454;2023-06-22T02:16:59;49.69;48.60;57.01;;
37163;Laerm;23057;48.554;14.454;2023-06-22T02:19:30;49.67;48.48;53.95;;
37163;Laerm;23057;48.554;14.454;2023-06-22T02:22:04;49.66;48.45;57.78;;
37163;Laerm;23057;48.554;14.454;2023-06-22T02:24:35;49.93;48.63;57.70;;
37163;Laerm;23057;48.554;14.454;2023-06-22T02:27:06;49.65;48.63;56.23;;
37163;Laerm;23057;48.554;14.454;2023-06-22T02:29:37;49.72;48.49;57.83;;
37163;Laerm;23057;48.554;14.454;2023-06-22T02:32:08;49.71;48.43;56.41;;
37163;Laerm;23057;48.554;14.454;2023-06-22T02:34:39;49.75;48.52;56.82;;
37163;Laerm;23057;48.554;14.454;2023-06-22T02:37:10;49.71;48.57;56.63;;
37163;Laerm;23057;48.554;14.454;2023-06-22T02:39:41;49.75;48.64;57.22;;
37163;Laerm;23057;48.554;14.454;2023-06-22T02:42:12;49.70;48.67;57.49;;
37163;Laerm;23057;48.554;14.454;2023-06-22T02:44:42;49.82;48.51;56.86;;
37163;Laerm;23057;48.554;14.454;2023-06-22T02:47:13;49.78;48.57;57.43;;
37163;Laerm;23057;48.554;14.454;2023-06-22T02:49:44;49.75;48.64;57.23;;
37163;Laerm;23057;48.554;14.454;2023-06-22T02:52:16;49.74;48.63;57.67;;
37163;Laerm;23057;48.554;14.454;2023-06-22T02:54:47;49.72;48.45;57.02;;
37163;Laerm;23057;48.554;14.454;2023-06-22T02:57:17;49.76;48.60;56.71;;
37163;Laerm;23057;48.554;14.454;2023-06-22T02:59:48;49.75;48.58;56.18;;
37163;Laerm;23057;48.554;14.454;2023-06-22T03:02:19;49.76;48.63;57.27;;
37163;Laerm;23057;48.554;14.454;2023-06-22T03:04:52;49.69;48.43;56.40;;
37163;Laerm;23057;48.554;14.454;2023-06-22T03:07:24;49.66;48.40;57.24;;
37163;Laerm;23057;48.554;14.454;2023-06-22T03:09:54;49.67;48.52;57.32;;
37163;Laerm;23057;48.554;14.454;2023-06-22T03:12:25;49.66;48.58;57.34;;
37163;Laerm;23057;48.554;14.454;2023-06-22T03:14:56;49.78;48.63;57.30;;
37163;Laerm;23057;48.554;14.454;2023-06-22T03:17:26;49.68;48.66;57.46;;
37163;Laerm;23057;48.554;14.454;2023-06-22T03:19:57;49.67;48.55;56.35;;
37163;Laerm;23057;48.554;14.454;2023-06-22T03:22:28;49.67;48.52;56.82;;
37163;Laerm;23057;48.554;14.454;2023-06-22T03:24:59;49.68;48.55;57.44;;
37163;Laerm;23057;48.554;14.454;2023-06-22T03:27:29;49.69;48.57;57.89;;
37163;Laerm;23057;48.554;14.454;2023-06-22T03:30:00;49.69;48.48;57.13;;
37163;Laerm;23057;48.554;14.454;2023-06-22T03:32:31;49.70;48.52;57.38;;
37163;Laerm;23057;48.554;14.454;2023-06-22T03:35:02;49.70;48.57;57.88;;
37163;Laerm;23057;48.554;14.454;2023-06-22T03:37:33;49.73;48.43;58.19;;
37163;Laerm;23057;48.554;14.454;2023-06-22T03:40:04;49.83;48.39;58.46;;
37163;Laerm;23057;48.554;14.454;2023-06-22T03:42:35;49.87;48.51;58.76;;
37163;Laerm;23057;48.554;14.454;2023-06-22T03:45:07;49.86;48.28;58.48;;
37163;Laerm;23057;48.554;14.454;2023-06-22T03:47:38;49.98;48.42;59.32;;
37163;Laerm;23057;48.554;14.454;2023-06-22T03:50:09;50.14;48.43;59.40;;
37163;Laerm;23057;48.554;14.454;2023-06-22T03:52:40;50.38;48.51;59.59;;
37163;Laerm;23057;48.554;14.454;2023-06-22T03:55:11;50.74;48.39;59.92;;
37163;Laerm;23057;48.554;14.454;2023-06-22T03:57:41;51.06;48.61;60.60;;
37163;Laerm;23057;48.554;14.454;2023-06-22T04:00:13;51.23;48.25;63.60;;
37163;Laerm;23057;48.554;14.454;2023-06-22T04:02:46;51.67;48.20;65.57;;
37163;Laerm;23057;48.554;14.454;2023-06-22T04:05:16;51.78;48.51;65.93;;
37163;Laerm;23057;48.554;14.454;2023-06-22T04:07:50;52.09;48.32;67.02;;
37163;Laerm;23057;48.554;14.454;2023-06-22T04:10:21;52.31;48.31;67.41;;
37163;Laerm;23057;48.554;14.454;2023-06-22T04:12:51;52.62;48.31;67.88;;
37163;Laerm;23057;48.554;14.454;2023-06-22T04:15:22;52.85;48.40;67.68;;
37163;Laerm;23057;48.554;14.454;2023-06-22T04:17:55;53.10;48.13;68.15;;
37163;Laerm;23057;48.554;14.454;2023-06-22T04:20:26;53.66;48.46;68.59;;
37163;Laerm;23057;48.554;14.454;2023-06-22T04:22:57;54.06;48.18;69.39;;
37163;Laerm;23057;48.554;14.454;2023-06-22T04:25:27;54.42;48.37;70.68;;
37163;Laerm;23057;48.554;14.454;2023-06-22T04:27:58;55.18;48.32;70.41;;
37163;Laerm;23057;48.554;14.454;2023-06-22T04:30:29;54.91;47.95;70.43;;
37163;Laerm;23057;48.554;14.454;2023-06-22T04:33:02;55.78;48.02;71.73;;
37163;Laerm;23057;48.554;14.454;2023-06-22T04:35:32;56.17;48.12;71.60;;
37163;Laerm;23057;48.554;14.454;2023-06-22T04:38:03;57.51;48.36;72.07;;
37163;Laerm;23057;48.554;14.454;2023-06-22T04:40:34;57.30;48.32;71.56;;
37163;Laerm;23057;48.554;14.454;2023-06-22T04:43:05;56.84;48.25;71.80;;
37163;Laerm;23057;48.554;14.454;2023-06-22T04:45:36;56.90;48.16;71.60;;
37163;Laerm;23057;48.554;14.454;2023-06-22T04:48:08;58.08;48.26;72.43;;
37163;Laerm;23057;48.554;14.454;2023-06-22T04:50:40;59.14;48.20;72.82;;
37163;Laerm;23057;48.554;14.454;2023-06-22T04:53:10;59.31;48.28;73.19;;
37163;Laerm;23057;48.554;14.454;2023-06-22T04:55:43;60.27;48.16;76.34;;
37163;Laerm;23057;48.554;14.454;2023-06-22T04:58:17;61.36;48.34;77.76;;
37163;Laerm;23057;48.554;14.454;2023-06-22T05:00:50;60.49;48.48;75.82;;
37163;Laerm;23057;48.554;14.454;2023-06-22T05:03:22;61.64;48.42;77.65;;
37163;Laerm;23057;48.554;14.454;2023-06-22T05:05:53;60.99;48.40;77.04;;
37163;Laerm;23057;48.554;14.454;2023-06-22T05:08:24;60.85;48.55;77.41;;
37163;Laerm;23057;48.554;14.454;2023-06-22T05:10:57;61.23;48.28;80.29;;
37163;Laerm;23057;48.554;14.454;2023-06-22T05:13:27;61.57;48.55;78.55;;
37163;Laerm;23057;48.554;14.454;2023-06-22T05:15:58;62.74;48.60;77.78;;
37163;Laerm;23057;48.554;14.454;2023-06-22T05:18:32;61.60;49.00;77.68;;
37163;Laerm;23057;48.554;14.454;2023-06-22T05:21:03;62.38;49.07;77.05;;
37163;Laerm;23057;48.554;14.454;2023-06-22T05:23:34;62.06;48.70;77.60;;
37163;Laerm;23057;48.554;14.454;2023-06-22T05:26:04;62.40;50.04;77.78;;
37163;Laerm;23057;48.554;14.454;2023-06-22T05:28:35;61.93;49.45;77.94;;
37163;Laerm;23057;48.554;14.454;2023-06-22T05:31:06;61.91;48.96;78.97;;
37163;Laerm;23057;48.554;14.454;2023-06-22T05:33:37;61.73;49.83;76.73;;
37163;Laerm;23057;48.554;14.454;2023-06-22T05:36:08;61.69;48.94;77.68;;
37163;Laerm;23057;48.554;14.454;2023-06-22T05:38:39;58.93;50.80;74.39;;
37163;Laerm;23057;48.554;14.454;2023-06-22T05:41:10;54.69;49.39;69.38;;
37163;Laerm;23057;48.554;14.454;2023-06-22T05:43:41;54.47;49.50;68.37;;
37163;Laerm;23057;48.554;14.454;2023-06-22T05:46:12;53.50;49.82;69.42;;
37163;Laerm;23057;48.554;14.454;2023-06-22T05:48:43;54.09;49.84;68.98;;
37163;Laerm;23057;48.554;14.454;2023-06-22T05:51:13;54.80;50.86;71.07;;
37163;Laerm;23057;48.554;14.454;2023-06-22T05:53:44;54.04;50.44;69.78;;
37163;Laerm;23057;48.554;14.454;2023-06-22T05:56:17;54.13;50.28;70.29;;
37163;Laerm;23057;48.554;14.454;2023-06-22T05:58:48;55.13;50.85;69.44;;
37163;Laerm;23057;48.554;14.454;2023-06-22T06:01:18;55.79;50.75;68.63;;
37163;Laerm;23057;48.554;14.454;2023-06-22T06:03:49;54.75;50.69;67.74;;
37163;Laerm;23057;48.554;14.454;2023-06-22T06:06:20;58.52;49.90;70.19;;
37163;Laerm;23057;48.554;14.454;2023-06-22T06:08:51;52.87;49.24;68.30;;
37163;Laerm;23057;48.554;14.454;2023-06-22T06:11:23;55.04;51.36;68.76;;
37163;Laerm;23057;48.554;14.454;2023-06-22T06:13:54;54.44;48.77;68.27;;
37163;Laerm;23057;48.554;14.454;2023-06-22T06:16:24;51.78;48.69;67.93;;
37163;Laerm;23057;48.554;14.454;2023-06-22T06:18:55;52.33;49.20;67.16;;
37163;Laerm;23057;48.554;14.454;2023-06-22T06:21:26;51.76;48.63;69.67;;
37163;Laerm;23057;48.554;14.454;2023-06-22T06:23:57;51.65;48.57;66.38;;
37163;Laerm;23057;48.554;14.454;2023-06-22T06:26:27;53.58;49.11;69.63;;
37163;Laerm;23057;48.554;14.454;2023-06-22T06:29:00;54.36;50.51;72.31;;
37163;Laerm;23057;48.554;14.454;2023-06-22T06:31:30;54.69;50.77;73.38;;
37163;Laerm;23057;48.554;14.454;2023-06-22T06:34:01;63.42;49.00;74.73;;
37163;Laerm;23057;48.554;14.454;2023-06-22T06:36:32;61.69;54.42;73.40;;
37163;Laerm;23057;48.554;14.454;2023-06-22T06:39:03;67.36;48.49;74.17;;
37163;Laerm;23057;48.554;14.454;2023-06-22T06:41:34;67.24;60.61;74.12;;
37163;Laerm;23057;48.554;14.454;2023-06-22T06:44:05;63.18;48.43;74.32;;
37163;Laerm;23057;48.554;14.454;2023-06-22T06:46:35;59.83;52.60;69.46;;
37163;Laerm;23057;48.554;14.454;2023-06-22T06:49:06;60.29;49.52;70.67;;
37163;Laerm;23057;48.554;14.454;2023-06-22T06:51:37;61.45;54.01;71.16;;
37163;Laerm;23057;48.554;14.454;2023-06-22T06:54:07;62.82;55.17;68.50;;
37163;Laerm;23057;48.554;14.454;2023-06-22T06:56:38;62.54;52.80;67.98;;
37163;Laerm;23057;48.554;14.454;2023-06-22T06:59:09;61.80;50.70;69.84;;
37163;Laerm;23057;48.554;14.454;2023-06-22T07:01:40;64.09;57.40;69.35;;
37163;Laerm;23057;48.554;14.454;2023-06-22T07:04:10;61.35;50.38;71.43;;
37163;Laerm;23057;48.554;14.454;2023-06-22T07:06:41;62.43;56.31;71.64;;
37163;Laerm;23057;48.554;14.454;2023-06-22T07:09:13;61.22;50.23;70.97;;
37163;Laerm;23057;48.554;14.454;2023-06-22T07:11:44;61.56;49.23;71.87;;
37163;Laerm;23057;48.554;14.454;2023-06-22T07:14:14;61.77;53.68;67.72;;
37163;Laerm;23057;48.554;14.454;2023-06-22T07:16:45;58.31;48.64;64.23;;
37163;Laerm;23057;48.554;14.454;2023-06-22T07:19:16;56.61;48.60;68.84;;
37163;Laerm;23057;48.554;14.454;2023-06-22T07:21:46;63.08;48.57;75.14;;
37163;Laerm;23057;48.554;14.454;2023-06-22T07:24:17;58.05;48.32;67.64;;
37163;Laerm;23057;48.554;14.454;2023-06-22T07:26:51;54.59;48.08;70.78;;
37163;Laerm;23057;48.554;14.454;2023-06-22T07:29:22;53.75;47.98;71.15;;
37163;Laerm;23057;48.554;14.454;2023-06-22T07:31:53;53.39;48.18;68.97;;
37163;Laerm;23057;48.554;14.454;2023-06-22T07:34:24;53.91;48.00;70.00;;
37163;Laerm;23057;48.554;14.454;2023-06-22T07:36:55;52.71;48.10;68.54;;
37163;Laerm;23057;48.554;14.454;2023-06-22T07:39:26;52.54;48.15;68.07;;
37163;Laerm;23057;48.554;14.454;2023-06-22T07:41:57;52.82;48.08;69.00;;
37163;Laerm;23057;48.554;14.454;2023-06-22T07:44:27;52.67;47.98;70.00;;
37163;Laerm;23057;48.554;14.454;2023-06-22T07:46:58;52.75;48.18;68.40;;
37163;Laerm;23057;48.554;14.454;2023-06-22T07:49:29;53.16;48.08;69.64;;
37163;Laerm;23057;48.554;14.454;2023-06-22T07:52:00;53.20;48.05;68.73;;
37163;Laerm;23057;48.554;14.454;2023-06-22T07:54:31;52.91;48.15;68.41;;
37163;Laerm;23057;48.554;14.454;2023-06-22T07:57:03;52.62;48.08;68.37;;
37163;Laerm;23057;48.554;14.454;2023-06-22T07:59:33;52.48;48.07;70.27;;
37163;Laerm;23057;48.554;14.454;2023-06-22T08:02:05;53.04;48.12;70.07;;
37163;Laerm;23057;48.554;14.454;2023-06-22T08:04:35;52.49;48.07;69.21;;
37163;Laerm;23057;48.554;14.454;2023-06-22T08:07:06;52.50;48.12;68.99;;
37163;Laerm;23057;48.554;14.454;2023-06-22T08:09:38;52.55;48.03;68.96;;
37163;Laerm;23057;48.554;14.454;2023-06-22T08:12:09;52.29;48.00;66.70;;
37163;Laerm;23057;48.554;14.454;2023-06-22T08:14:42;52.61;48.15;67.84;;
37163;Laerm;23057;48.554;14.454;2023-06-22T08:17:14;52.66;48.25;66.59;;
37163;Laerm;23057;48.554;14.454;2023-06-22T08:19:45;53.27;48.37;68.70;;
37163;Laerm;23057;48.554;14.454;2023-06-22T08:22:17;54.42;48.24;69.72;;
37163;Laerm;23057;48.554;14.454;2023-06-22T08:24:48;54.29;48.16;69.38;;
37163;Laerm;23057;48.554;14.454;2023-06-22T08:27:19;54.10;48.08;68.35;;
37163;Laerm;23057;48.554;14.454;2023-06-22T08:29:51;53.88;48.23;67.75;;
37163;Laerm;23057;48.554;14.454;2023-06-22T08:32:28;54.82;48.20;69.34;;
37163;Laerm;23057;48.554;14.454;2023-06-22T08:34:59;54.07;48.10;69.24;;
37163;Laerm;23057;48.554;14.454;2023-06-22T08:37:30;54.93;48.03;69.07;;
37163;Laerm;23057;48.554;14.454;2023-06-22T08:40:05;54.96;48.21;69.60;;
37163;Laerm;23057;48.554;14.454;2023-06-22T08:42:40;55.39;48.00;70.06;;
37163;Laerm;23057;48.554;14.454;2023-06-22T08:45:13;54.77;47.93;69.32;;
37163;Laerm;23057;48.554;14.454;2023-06-22T08:47:44;55.52;48.37;69.43;;
37163;Laerm;23057;48.554;14.454;2023-06-22T08:50:14;55.73;48.15;69.85;;
37163;Laerm;23057;48.554;14.454;2023-06-22T08:52:45;55.32;48.23;69.10;;
37163;Laerm;23057;48.554;14.454;2023-06-22T08:55:17;54.92;48.20;68.25;;
37163;Laerm;23057;48.554;14.454;2023-06-22T08:57:48;55.11;48.28;68.84;;
37163;Laerm;23057;48.554;14.454;2023-06-22T09:00:19;55.59;47.63;69.97;;
37163;Laerm;23057;48.554;14.454;2023-06-22T09:02:50;55.08;48.07;69.02;;
37163;Laerm;23057;48.554;14.454;2023-06-22T09:05:21;55.13;48.29;69.30;;
37163;Laerm;23057;48.554;14.454;2023-06-22T09:07:52;55.03;48.10;69.03;;
37163;Laerm;23057;48.554;14.454;2023-06-22T09:10:26;54.68;48.25;69.66;;
37163;Laerm;23057;48.554;14.454;2023-06-22T09:12:57;54.56;48.13;69.20;;
37163;Laerm;23057;48.554;14.454;2023-06-22T09:15:28;54.37;48.12;69.63;;
37163;Laerm;23057;48.554;14.454;2023-06-22T09:17:59;55.46;48.36;70.97;;
37163;Laerm;23057;48.554;14.454;2023-06-22T09:20:29;49.59;47.91;60.52;;
37163;Laerm;23057;48.554;14.454;2023-06-22T09:23:00;49.18;48.02;50.59;;
37163;Laerm;23057;48.554;14.454;2023-06-22T09:25:31;49.14;48.12;50.53;;
37163;Laerm;23057;48.554;14.454;2023-06-22T09:28:02;49.15;48.07;50.45;;
37163;Laerm;23057;48.554;14.454;2023-06-22T09:30:33;49.19;48.03;50.81;;
37163;Laerm;23057;48.554;14.454;2023-06-22T09:33:04;49.15;48.12;50.98;;
37163;Laerm;23057;48.554;14.454;2023-06-22T09:35:34;49.19;47.96;51.30;;
37163;Laerm;23057;48.554;14.454;2023-06-22T09:38:05;49.14;48.02;50.77;;
37163;Laerm;23057;48.554;14.454;2023-06-22T09:40:36;49.09;47.91;50.41;;
37163;Laerm;23057;48.554;14.454;2023-06-22T09:43:10;49.10;47.90;50.55;;
37163;Laerm;23057;48.554;14.454;2023-06-22T09:45:42;49.09;48.05;50.54;;
37163;Laerm;23057;48.554;14.454;2023-06-22T09:48:12;49.08;47.83;50.60;;
37163;Laerm;23057;48.554;14.454;2023-06-22T09:50:43;49.11;47.84;51.04;;
37163;Laerm;23057;48.554;14.454;2023-06-22T09:53:14;49.11;47.88;50.90;;
37163;Laerm;23057;48.554;14.454;2023-06-22T09:55:45;49.06;48.07;50.77;;
37163;Laerm;23057;48.554;14.454;2023-06-22T09:58:15;49.08;47.77;50.87;;
37163;Laerm;23057;48.554;14.454;2023-06-22T10:00:46;49.06;47.84;50.76;;
37163;Laerm;23057;48.554;14.454;2023-06-22T10:03:17;49.30;48.03;67.65;;
37163;Laerm;23057;48.554;14.454;2023-06-22T10:05:48;49.11;47.79;50.75;;
37163;Laerm;23057;48.554;14.454;2023-06-22T10:08:18;49.10;48.02;50.27;;
37163;Laerm;23057;48.554;14.454;2023-06-22T10:10:49;49.19;47.93;68.28;;
37163;Laerm;23057;48.554;14.454;2023-06-22T10:13:20;49.20;47.91;51.28;;
37163;Laerm;23057;48.554;14.454;2023-06-22T10:15:51;49.16;47.84;50.77;;
37163;Laerm;23057;48.554;14.454;2023-06-22T10:18:22;49.21;47.84;68.31;;
37163;Laerm;23057;48.554;14.454;2023-06-22T10:20:53;49.10;47.95;50.78;;
37163;Laerm;23057;48.554;14.454;2023-06-22T10:23:24;49.41;47.81;68.95;;
37163;Laerm;23057;48.554;14.454;2023-06-22T10:25:54;49.09;47.95;50.64;;
37163;Laerm;23057;48.554;14.454;2023-06-22T10:28:27;49.12;47.91;50.73;;
37163;Laerm;23057;48.554;14.454;2023-06-22T10:30:58;49.18;48.00;67.65;;
37163;Laerm;23057;48.554;14.454;2023-06-22T10:33:28;49.35;47.98;51.10;;
37163;Laerm;23057;48.554;14.454;2023-06-22T10:35:59;50.00;48.21;66.70;;
37163;Laerm;23057;48.554;14.454;2023-06-22T10:38:30;49.91;48.32;51.15;;
37163;Laerm;23057;48.554;14.454;2023-06-22T10:41:01;49.89;48.25;51.54;;
37163;Laerm;23057;48.554;14.454;2023-06-22T10:43:32;49.90;48.25;52.83;;
37163;Laerm;23057;48.554;14.454;2023-06-22T10:46:02;49.85;47.65;68.42;;
37163;Laerm;23057;48.554;14.454;2023-06-22T10:48:33;49.69;48.32;51.17;;
37163;Laerm;23057;48.554;14.454;2023-06-22T10:51:04;49.67;48.18;51.24;;
37163;Laerm;23057;48.554;14.454;2023-06-22T10:53:35;49.83;48.34;52.22;;
37163;Laerm;23057;48.554;14.454;2023-06-22T10:56:05;49.81;48.26;51.05;;
37163;Laerm;23057;48.554;14.454;2023-06-22T10:58:36;49.79;48.40;65.95;;
37163;Laerm;23057;48.554;14.454;2023-06-22T11:01:07;49.77;48.31;51.28;;
37163;Laerm;23057;48.554;14.454;2023-06-22T11:03:38;49.73;48.26;50.94;;
37163;Laerm;23057;48.554;14.454;2023-06-22T11:06:08;49.70;48.25;50.97;;
37163;Laerm;23057;48.554;14.454;2023-06-22T11:08:39;49.75;48.21;51.00;;
37163;Laerm;23057;48.554;14.454;2023-06-22T11:11:10;49.71;48.25;50.92;;
37163;Laerm;23057;48.554;14.454;2023-06-22T11:13:40;49.74;48.37;51.46;;
37163;Laerm;23057;48.554;14.454;2023-06-22T11:16:11;49.75;48.31;50.91;;
37163;Laerm;23057;48.554;14.454;2023-06-22T11:18:42;49.70;48.18;50.86;;
37163;Laerm;23057;48.554;14.454;2023-06-22T11:21:13;49.85;48.29;51.60;;
37163;Laerm;23057;48.554;14.454;2023-06-22T11:23:44;49.69;48.18;50.84;;
37163;Laerm;23057;48.554;14.454;2023-06-22T11:26:15;49.71;48.31;51.08;;
37163;Laerm;23057;48.554;14.454;2023-06-22T11:28:46;49.65;48.20;50.99;;
37163;Laerm;23057;48.554;14.454;2023-06-22T11:31:18;50.04;48.26;51.88;;
37163;Laerm;23057;48.554;14.454;2023-06-22T11:33:49;49.60;47.86;52.98;;
37163;Laerm;23057;48.554;14.454;2023-06-22T11:36:20;49.32;48.02;50.49;;
37163;Laerm;23057;48.554;14.454;2023-06-22T11:38:51;49.34;48.08;50.77;;
37163;Laerm;23057;48.554;14.454;2023-06-22T11:41:22;50.36;48.31;67.64;;
37163;Laerm;23057;48.554;14.454;2023-06-22T11:43:53;49.77;48.16;66.44;;
37163;Laerm;23057;48.554;14.454;2023-06-22T11:46:23;49.72;48.20;51.82;;
37163;Laerm;23057;48.554;14.454;2023-06-22T11:48:54;49.79;48.20;66.56;;
37163;Laerm;23057;48.554;14.454;2023-06-22T11:51:25;49.85;48.34;67.99;;
37163;Laerm;23057;48.554;14.454;2023-06-22T11:53:55;49.52;48.21;50.79;;
37163;Laerm;23057;48.554;14.454;2023-06-22T11:56:26;49.62;48.32;52.32;;
37163;Laerm;23057;48.554;14.454;2023-06-22T11:58:58;49.53;48.26;52.10;;
37163;Laerm;23057;48.554;14.454;2023-06-22T12:01:29;49.34;47.88;51.80;;
37163;Laerm;23057;48.554;14.454;2023-06-22T12:03:59;49.77;48.02;52.51;;
37163;Laerm;23057;48.554;14.454;2023-06-22T12:06:30;50.88;48.15;68.22;;
37163;Laerm;23057;48.554;14.454;2023-06-22T12:09:01;49.48;48.16;67.39;;
37163;Laerm;23057;48.554;14.454;2023-06-22T12:11:35;49.42;48.29;51.08;;
37163;Laerm;23057;48.554;14.454;2023-06-22T12:14:05;49.48;48.12;53.63;;
37163;Laerm;23057;48.554;14.454;2023-06-22T12:16:36;49.41;48.20;50.75;;
37163;Laerm;23057;48.554;14.454;2023-06-22T12:19:08;49.55;48.39;51.19;;
37163;Laerm;23057;48.554;14.454;2023-06-22T12:21:38;49.67;48.26;51.33;;
37163;Laerm;23057;48.554;14.454;2023-06-22T12:24:11;49.56;48.05;50.98;;
37163;Laerm;23057;48.554;14.454;2023-06-22T12:26:42;49.74;48.29;67.08;;
37163;Laerm;23057;48.554;14.454;2023-06-22T12:29:13;49.69;48.12;67.22;;
37163;Laerm;23057;48.554;14.454;2023-06-22T12:31:44;49.64;48.40;51.09;;
37163;Laerm;23057;48.554;14.454;2023-06-22T12:34:14;49.55;48.05;52.34;;
37163;Laerm;23057;48.554;14.454;2023-06-22T12:36:45;49.60;48.23;51.11;;
37163;Laerm;23057;48.554;14.454;2023-06-22T12:39:18;49.84;48.16;68.77;;
37163;Laerm;23057;48.554;14.454;2023-06-22T12:41:49;49.46;48.28;50.84;;
37163;Laerm;23057;48.554;14.454;2023-06-22T12:44:19;49.53;47.84;51.11;;
37163;Laerm;23057;48.554;14.454;2023-06-22T12:46:50;49.13;47.95;50.50;;
37163;Laerm;23057;48.554;14.454;2023-06-22T12:49:21;49.59;48.18;51.11;;
37163;Laerm;23057;48.554;14.454;2023-06-22T12:51:52;49.43;48.12;69.30;;
37163;Laerm;23057;48.554;14.454;2023-06-22T12:54:22;49.36;48.03;50.82;;
37163;Laerm;23057;48.554;14.454;2023-06-22T12:56:53;49.56;48.10;68.62;;
37163;Laerm;23057;48.554;14.454;2023-06-22T12:59:24;49.47;48.13;50.87;;
37163;Laerm;23057;48.554;14.454;2023-06-22T13:01:55;49.72;47.90;51.73;;
37163;Laerm;23057;48.554;14.454;2023-06-22T13:04:25;49.58;48.13;51.32;;
37163;Laerm;23057;48.554;14.454;2023-06-22T13:06:56;49.48;48.03;50.91;;
37163;Laerm;23057;48.554;14.454;2023-06-22T13:09:27;49.64;48.15;67.09;;
37163;Laerm;23057;48.554;14.454;2023-06-22T13:11:58;49.50;48.23;51.11;;
37163;Laerm;23057;48.554;14.454;2023-06-22T13:14:28;49.60;48.10;65.99;;
37163;Laerm;23057;48.554;14.454;2023-06-22T13:16:59;49.12;47.96;50.42;;
37163;Laerm;23057;48.554;14.454;2023-06-22T13:19:30;49.19;48.10;50.58;;
37163;Laerm;23057;48.554;14.454;2023-06-22T13:22:03;49.28;48.07;51.40;;
37163;Laerm;23057;48.554;14.454;2023-06-22T13:24:34;49.19;48.00;53.15;;
37163;Laerm;23057;48.554;14.454;2023-06-22T13:27:05;49.23;47.91;51.06;;
37163;Laerm;23057;48.554;14.454;2023-06-22T13:29:36;49.46;48.07;54.15;;
37163;Laerm;23057;48.554;14.454;2023-06-22T13:32:07;49.28;47.96;50.79;;
37163;Laerm;23057;48.554;14.454;2023-06-22T13:34:37;49.32;48.03;51.03;;
37163;Laerm;23057;48.554;14.454;2023-06-22T13:37:08;49.50;48.08;68.45;;
37163;Laerm;23057;48.554;14.454;2023-06-22T13:39:39;49.27;48.12;50.92;;
37163;Laerm;23057;48.554;14.454;2023-06-22T13:42:10;49.24;48.03;50.68;;
37163;Laerm;23057;48.554;14.454;2023-06-22T13:44:40;49.20;47.88;50.61;;
37163;Laerm;23057;48.554;14.454;2023-06-22T13:47:11;49.28;48.00;50.90;;
37163;Laerm;23057;48.554;14.454;2023-06-22T13:49:42;49.42;47.96;50.93;;
37163;Laerm;23057;48.554;14.454;2023-06-22T13:52:13;49.27;48.12;50.71;;
37163;Laerm;23057;48.554;14.454;2023-06-22T13:54:43;49.34;48.23;51.22;;
37163;Laerm;23057;48.554;14.454;2023-06-22T13:57:14;49.60;47.95;69.75;;
37163;Laerm;23057;48.554;14.454;2023-06-22T13:59:45;49.36;47.98;51.93;;
37163;Laerm;23057;48.554;14.454;2023-06-22T14:02:16;49.34;48.08;68.80;;